Time;durP1;ratioP1;P1;durP2;ratioP2;P2;SDS_P1;SDS_P2;PMS_P1;PMS_P2;Temp;Humidity;BMP_temperature;BMP_pressure;BME280_temperature;BME280_humidity;BME280_pressure;Samples;Min_cycle;Max_cycle;Signal;HPM_P1;HPM_P2
2022/07/29 00:01:34;;;;;;;0.90;0.80;;;;;;;;;;5102750;28;20203;-62
2022/07/29 00:04:21;;;;;;;0.67;0.60;;;;;;;;;;5103305;28;20206;-62
2022/07/29 00:07:09;;;;;;;0.93;0.93;;;;;;;;;;5102665;28;20221;-62
2022/07/29 00:09:57;;;;;;;0.80;0.80;;;;;;;;;;5097737;28;20227;-62
2022/07/29 00:12:44;;;;;;;0.83;0.70;;;;;;;;;;5100929;28;20204;-62
2022/07/29 00:15:31;;;;;;;1.00;0.87;;;;;;;;;;5098082;28;20212;-62
2022/07/29 00:18:18;;;;;;;0.93;0.90;;;;;;;;;;5093660;28;20207;-62
2022/07/29 00:21:05;;;;;;;0.77;0.60;;;;;;;;;;5103272;28;20201;-62
2022/07/29 00:23:53;;;;;;;0.60;0.60;;;;;;;;;;5096991;28;20233;-62
2022/07/29 00:26:40;;;;;;;1.37;0.80;;;;;;;;;;5103301;28;20261;-62
2022/07/29 00:29:27;;;;;;;1.13;0.90;;;;;;;;;;5096538;28;20278;-62
2022/07/29 00:32:14;;;;;;;0.67;0.60;;;;;;;;;;5096718;28;20225;-62
2022/07/29 00:38:05;;;;;;;0.60;0.60;;;;;;;;;;5099046;28;20204;-62
2022/07/29 00:40:53;;;;;;;1.07;0.83;;;;;;;;;;5095691;28;20213;-63
2022/07/29 00:43:40;;;;;;;0.70;0.70;;;;;;;;;;5099750;28;20689;-62
2022/07/29 00:46:27;;;;;;;1.00;1.00;;;;;;;;;;5108123;28;20215;-62
2022/07/29 00:49:14;;;;;;;0.80;0.80;;;;;;;;;;5101386;28;20310;-62
2022/07/29 00:52:02;;;;;;;0.93;0.93;;;;;;;;;;5094197;28;20280;-62
2022/07/29 00:54:49;;;;;;;0.80;0.70;;;;;;;;;;5100010;28;20202;-62
2022/07/29 00:57:38;;;;;;;0.60;0.60;;;;;;;;;;5096574;28;20578;-63
2022/07/29 01:00:28;;;;;;;1.10;0.77;;;;;;;;;;5101662;28;20281;-60
2022/07/29 01:03:15;;;;;;;0.80;0.80;;;;;;;;;;5099047;28;20610;-62
2022/07/29 01:06:02;;;;;;;1.00;0.83;;;;;;;;;;5102083;28;20229;-62
2022/07/29 01:08:50;;;;;;;0.80;0.70;;;;;;;;;;5095668;28;20209;-62
2022/07/29 01:11:38;;;;;;;0.90;0.90;;;;;;;;;;5100541;28;20210;-62
2022/07/29 01:14:27;;;;;;;0.70;0.70;;;;;;;;;;5100315;28;20209;-62
2022/07/29 01:17:19;;;;;;;0.77;0.77;;;;;;;;;;5093793;28;20201;-62
2022/07/29 01:20:13;;;;;;;1.17;0.77;;;;;;;;;;5097629;28;20213;-63
2022/07/29 01:23:40;;;;;;;1.03;0.93;;;;;;;;;;5097394;28;20213;-62
2022/07/29 01:26:43;;;;;;;1.07;1.07;;;;;;;;;;5099497;28;20234;-63
2022/07/29 01:29:39;;;;;;;0.73;0.73;;;;;;;;;;5091057;28;20233;-62
2022/07/29 01:32:29;;;;;;;0.90;0.90;;;;;;;;;;5101210;28;20855;-62
2022/07/29 01:35:20;;;;;;;1.00;0.80;;;;;;;;;;5105672;28;20200;-63
2022/07/29 01:38:11;;;;;;;0.80;0.80;;;;;;;;;;5097784;28;20210;-62
2022/07/29 01:41:06;;;;;;;0.80;0.80;;;;;;;;;;5097681;28;20205;-62
2022/07/29 01:43:57;;;;;;;0.80;0.80;;;;;;;;;;5098832;28;20212;-62
2022/07/29 01:46:51;;;;;;;1.13;1.07;;;;;;;;;;5096427;28;20292;-62
2022/07/29 01:49:44;;;;;;;0.80;0.80;;;;;;;;;;5101730;28;20241;-62
2022/07/29 01:52:35;;;;;;;0.97;0.87;;;;;;;;;;5097632;28;20205;-62
2022/07/29 01:55:27;;;;;;;1.23;0.80;;;;;;;;;;5101289;28;20291;-62
2022/07/29 01:58:16;;;;;;;0.70;0.70;;;;;;;;;;5097437;28;20211;-62
2022/07/29 02:01:05;;;;;;;0.80;0.80;;;;;;;;;;5104046;28;20212;-62
2022/07/29 02:03:55;;;;;;;1.77;0.90;;;;;;;;;;5097198;28;20236;-62
2022/07/29 02:06:45;;;;;;;0.70;0.70;;;;;;;;;;5102720;28;20228;-62
2022/07/29 02:09:36;;;;;;;0.80;0.80;;;;;;;;;;5097198;28;20265;-62
2022/07/29 02:12:25;;;;;;;0.90;0.90;;;;;;;;;;5095925;28;20285;-62
2022/07/29 02:15:12;;;;;;;1.03;0.93;;;;;;;;;;5102276;28;20204;-62
2022/07/29 02:18:03;;;;;;;1.17;0.80;;;;;;;;;;5093823;28;20213;-64
2022/07/29 02:20:55;;;;;;;0.67;0.63;;;;;;;;;;5097355;28;20672;-62
2022/07/29 02:23:42;;;;;;;0.90;0.90;;;;;;;;;;5093399;28;20241;-62
2022/07/29 02:26:31;;;;;;;0.73;0.67;;;;;;;;;;5096921;28;20262;-62
2022/07/29 02:29:22;;;;;;;0.70;0.70;;;;;;;;;;5099997;28;20266;-61
2022/07/29 02:32:11;;;;;;;1.13;0.90;;;;;;;;;;5097942;28;20207;-62
2022/07/29 02:34:59;;;;;;;1.00;0.80;;;;;;;;;;5094282;28;20736;-62
2022/07/29 02:38:50;;;;;;;0.90;0.80;;;;;;;;;;5100002;28;20684;-62
2022/07/29 02:40:56;;;;;;;0.77;0.77;;;;;;;;;;5094852;28;20237;-62
2022/07/29 02:43:46;;;;;;;0.93;0.73;;;;;;;;;;5101297;28;20208;-62
2022/07/29 02:46:36;;;;;;;0.67;0.67;;;;;;;;;;5097166;28;20291;-62
2022/07/29 02:49:34;;;;;;;0.73;0.73;;;;;;;;;;5104147;28;20349;-62
2022/07/29 02:52:26;;;;;;;0.90;0.90;;;;;;;;;;5098136;28;20696;-62
2022/07/29 02:55:19;;;;;;;0.80;0.80;;;;;;;;;;5099990;28;20217;-62
2022/07/29 02:58:11;;;;;;;0.80;0.80;;;;;;;;;;5100562;28;20274;-63
2022/07/29 03:01:02;;;;;;;0.70;0.70;;;;;;;;;;5099795;28;20293;-62
2022/07/29 03:03:51;;;;;;;0.70;0.70;;;;;;;;;;5099908;28;20203;-63
2022/07/29 03:06:39;;;;;;;1.43;0.80;;;;;;;;;;5097833;28;20611;-62
2022/07/29 03:09:27;;;;;;;0.60;0.60;;;;;;;;;;5100338;28;20230;-63
2022/07/29 03:12:16;;;;;;;1.10;1.00;;;;;;;;;;5101548;28;20216;-62
2022/07/29 03:15:04;;;;;;;0.80;0.80;;;;;;;;;;5101883;28;20217;-62
2022/07/29 03:17:53;;;;;;;0.93;0.87;;;;;;;;;;5097465;28;20672;-62
2022/07/29 03:20:40;;;;;;;1.80;1.00;;;;;;;;;;5103417;28;20290;-63
2022/07/29 03:23:27;;;;;;;0.97;0.83;;;;;;;;;;5101014;28;20371;-62
2022/07/29 03:26:14;;;;;;;0.77;0.77;;;;;;;;;;5103864;28;20202;-62
2022/07/29 03:29:03;;;;;;;0.90;0.90;;;;;;;;;;5111240;28;20205;-62
2022/07/29 03:31:50;;;;;;;0.90;0.90;;;;;;;;;;5100659;28;20649;-62
2022/07/29 03:34:38;;;;;;;0.90;0.90;;;;;;;;;;5096893;28;20676;-62
2022/07/29 03:37:25;;;;;;;2.10;1.20;;;;;;;;;;5103499;28;20247;-62
2022/07/29 03:40:15;;;;;;;1.07;1.07;;;;;;;;;;5100504;28;20202;-62
2022/07/29 03:43:04;;;;;;;1.10;1.10;;;;;;;;;;5100800;28;20211;-62
2022/07/29 03:45:55;;;;;;;1.17;1.07;;;;;;;;;;5107242;28;20210;-63
2022/07/29 03:48:46;;;;;;;1.23;1.20;;;;;;;;;;5100366;28;20213;-62
2022/07/29 03:51:33;;;;;;;1.73;1.23;;;;;;;;;;5103063;28;20319;-62
2022/07/29 03:54:20;;;;;;;1.27;1.27;;;;;;;;;;5102895;28;20626;-62
2022/07/29 03:57:08;;;;;;;1.27;1.23;;;;;;;;;;5098032;28;20205;-63
2022/07/29 03:59:56;;;;;;;1.10;1.10;;;;;;;;;;5099904;28;20230;-62
2022/07/29 04:02:48;;;;;;;1.10;1.10;;;;;;;;;;5097603;28;20650;-62
2022/07/29 04:05:35;;;;;;;1.30;1.20;;;;;;;;;;5104449;28;20227;-62
2022/07/29 04:08:22;;;;;;;1.37;1.13;;;;;;;;;;5099004;28;20205;-62
2022/07/29 04:11:09;;;;;;;1.27;1.20;;;;;;;;;;5101065;28;20681;-62
2022/07/29 04:13:56;;;;;;;1.07;1.00;;;;;;;;;;5100179;28;20198;-62
2022/07/29 04:16:43;;;;;;;1.07;1.07;;;;;;;;;;5104104;28;20289;-62
2022/07/29 04:19:32;;;;;;;1.13;1.13;;;;;;;;;;5098852;28;20219;-62
2022/07/29 04:22:19;;;;;;;0.97;0.97;;;;;;;;;;5098716;28;20207;-62
2022/07/29 04:25:06;;;;;;;1.20;1.10;;;;;;;;;;5100631;28;20590;-62
2022/07/29 04:28:02;;;;;;;1.63;0.90;;;;;;;;;;5098672;28;20250;-62
2022/07/29 04:30:49;;;;;;;1.10;1.03;;;;;;;;;;5104749;28;20229;-63
2022/07/29 04:33:36;;;;;;;1.30;1.10;;;;;;;;;;5098365;28;20264;-62
2022/07/29 04:36:24;;;;;;;1.03;1.03;;;;;;;;;;5096083;28;20289;-62
2022/07/29 04:39:11;;;;;;;1.00;1.00;;;;;;;;;;5103426;28;20210;-62
2022/07/29 04:41:58;;;;;;;1.00;1.00;;;;;;;;;;5100987;28;20210;-62
2022/07/29 04:44:45;;;;;;;1.13;1.13;;;;;;;;;;5092757;28;20216;-62
2022/07/29 04:47:32;;;;;;;0.90;0.90;;;;;;;;;;5091866;28;20210;-62
2022/07/29 04:50:19;;;;;;;1.20;1.10;;;;;;;;;;5096773;28;20234;-62
2022/07/29 04:53:08;;;;;;;0.90;0.90;;;;;;;;;;5100441;28;20210;-62
2022/07/29 04:55:55;;;;;;;0.93;0.93;;;;;;;;;;5097673;28;20570;-62
2022/07/29 04:58:42;;;;;;;1.03;1.03;;;;;;;;;;5101788;28;20206;-62
2022/07/29 05:01:29;;;;;;;0.93;0.93;;;;;;;;;;5097234;28;20258;-62
2022/07/29 05:04:16;;;;;;;0.67;0.67;;;;;;;;;;5096649;28;20210;-62
2022/07/29 05:07:03;;;;;;;0.60;0.60;;;;;;;;;;5094878;28;20229;-62
2022/07/29 05:09:52;;;;;;;0.80;0.80;;;;;;;;;;5099865;28;20206;-62
2022/07/29 05:12:39;;;;;;;1.00;0.90;;;;;;;;;;5096749;28;20339;-62
2022/07/29 05:15:26;;;;;;;1.33;0.70;;;;;;;;;;5096651;28;20216;-62
2022/07/29 05:18:13;;;;;;;0.90;0.90;;;;;;;;;;5101540;28;20210;-62
2022/07/29 05:21:00;;;;;;;0.67;0.67;;;;;;;;;;5094642;28;20578;-63
2022/07/29 05:23:47;;;;;;;0.53;0.53;;;;;;;;;;5102728;27;20250;-62
2022/07/29 05:26:36;;;;;;;0.80;0.80;;;;;;;;;;5110985;27;20240;-62
2022/07/29 05:29:23;;;;;;;0.77;0.77;;;;;;;;;;5115400;27;20658;-62
2022/07/29 05:32:10;;;;;;;0.80;0.80;;;;;;;;;;5116982;27;20216;-62
2022/07/29 05:34:57;;;;;;;0.83;0.83;;;;;;;;;;5117457;27;20209;-62
2022/07/29 05:37:43;;;;;;;0.70;0.70;;;;;;;;;;5118851;27;20214;-64
2022/07/29 05:40:30;;;;;;;0.70;0.70;;;;;;;;;;5117215;27;20265;-62
2022/07/29 05:43:19;;;;;;;0.70;0.70;;;;;;;;;;5117547;27;20235;-62
2022/07/29 05:46:06;;;;;;;0.60;0.60;;;;;;;;;;5115713;27;20210;-62
2022/07/29 05:48:52;;;;;;;0.73;0.73;;;;;;;;;;5117914;27;20206;-62
2022/07/29 05:51:39;;;;;;;0.70;0.70;;;;;;;;;;5122365;27;20231;-63
2022/07/29 05:54:26;;;;;;;0.80;0.80;;;;;;;;;;5115844;27;20208;-63
2022/07/29 05:57:17;;;;;;;1.00;1.00;;;;;;;;;;5119400;27;20213;-62
2022/07/29 06:00:07;;;;;;;0.70;0.70;;;;;;;;;;5120154;27;20222;-62
2022/07/29 06:02:54;;;;;;;0.60;0.60;;;;;;;;;;5121496;27;20198;-64
2022/07/29 06:05:41;;;;;;;0.70;0.70;;;;;;;;;;5124324;27;20305;-63
2022/07/29 06:08:28;;;;;;;0.50;0.50;;;;;;;;;;5121636;27;20208;-63
2022/07/29 06:11:15;;;;;;;0.65;0.65;;;;;;;;;;5119618;27;20248;-62
2022/07/29 06:14:02;;;;;;;0.52;0.52;;;;;;;;;;5118222;27;20202;-62
2022/07/29 06:16:51;;;;;;;0.57;0.57;;;;;;;;;;5115327;27;20630;-62
2022/07/29 06:19:38;;;;;;;0.57;0.57;;;;;;;;;;5117740;27;20210;-63
2022/07/29 06:22:25;;;;;;;0.60;0.60;;;;;;;;;;5124232;27;20295;-62
2022/07/29 06:25:12;;;;;;;0.60;0.60;;;;;;;;;;5118921;27;20703;-62
2022/07/29 06:28:00;;;;;;;0.50;0.50;;;;;;;;;;5116901;28;20618;-62
2022/07/29 06:30:47;;;;;;;0.55;0.55;;;;;;;;;;5118983;28;20731;-62
2022/07/29 06:33:35;;;;;;;0.57;0.57;;;;;;;;;;5115613;28;20339;-63
2022/07/29 06:36:22;;;;;;;0.40;0.40;;;;;;;;;;5116479;28;20201;-62
2022/07/29 06:39:09;;;;;;;1.42;0.60;;;;;;;;;;5114874;28;20254;-63
2022/07/29 06:41:56;;;;;;;0.70;0.70;;;;;;;;;;5120758;28;20637;-63
2022/07/29 06:44:43;;;;;;;0.63;0.63;;;;;;;;;;5115995;28;20208;-63
2022/07/29 06:47:30;;;;;;;0.50;0.50;;;;;;;;;;5118376;28;20329;-63
2022/07/29 06:50:18;;;;;;;0.50;0.50;;;;;;;;;;5117076;28;20202;-61
2022/07/29 06:53:06;;;;;;;0.60;0.60;;;;;;;;;;5121184;28;20665;-61
2022/07/29 06:55:53;;;;;;;0.60;0.60;;;;;;;;;;5117035;28;20799;-61
2022/07/29 06:58:40;;;;;;;0.60;0.60;;;;;;;;;;5116366;28;20430;-61
2022/07/29 07:01:27;;;;;;;0.60;0.60;;;;;;;;;;5114353;28;20209;-62
2022/07/29 07:04:14;;;;;;;0.55;0.55;;;;;;;;;;5123413;28;20288;-61
2022/07/29 07:07:02;;;;;;;0.65;0.40;;;;;;;;;;5120259;28;20756;-62
2022/07/29 07:09:49;;;;;;;0.50;0.50;;;;;;;;;;5120929;28;20210;-61
2022/07/29 07:12:36;;;;;;;0.70;0.70;;;;;;;;;;5116530;28;20232;-61
2022/07/29 07:15:23;;;;;;;0.50;0.50;;;;;;;;;;5108799;28;20205;-61
2022/07/29 07:18:10;;;;;;;0.60;0.60;;;;;;;;;;5115930;28;20603;-62
2022/07/29 07:20:58;;;;;;;0.50;0.50;;;;;;;;;;5122823;28;20209;-62
2022/07/29 07:23:46;;;;;;;0.73;0.60;;;;;;;;;;5115406;28;20233;-62
2022/07/29 07:26:33;;;;;;;0.50;0.50;;;;;;;;;;5114337;28;20347;-62
2022/07/29 07:29:20;;;;;;;0.50;0.50;;;;;;;;;;5116108;27;20285;-61
2022/07/29 07:32:07;;;;;;;0.40;0.40;;;;;;;;;;5118672;27;20237;-62
2022/07/29 07:34:54;;;;;;;0.73;0.60;;;;;;;;;;5124431;27;20210;-63
2022/07/29 07:37:41;;;;;;;0.50;0.50;;;;;;;;;;5124084;27;20201;-62
2022/07/29 07:40:30;;;;;;;1.10;0.50;;;;;;;;;;5120605;27;20201;-62
2022/07/29 07:43:17;;;;;;;0.57;0.57;;;;;;;;;;5119674;27;20245;-62
2022/07/29 07:46:05;;;;;;;0.52;0.52;;;;;;;;;;5120220;27;20243;-64
2022/07/29 07:48:52;;;;;;;0.57;0.57;;;;;;;;;;5125185;27;20220;-63
2022/07/29 07:51:39;;;;;;;0.50;0.50;;;;;;;;;;5117228;27;20287;-64
2022/07/29 07:54:26;;;;;;;0.50;0.50;;;;;;;;;;5123400;27;20699;-63
2022/07/29 07:57:15;;;;;;;0.60;0.60;;;;;;;;;;5121376;27;20313;-63
2022/07/29 08:00:03;;;;;;;0.45;0.45;;;;;;;;;;5123667;27;20254;-63
2022/07/29 08:02:50;;;;;;;0.43;0.43;;;;;;;;;;5121244;27;20219;-62
2022/07/29 08:05:37;;;;;;;0.45;0.45;;;;;;;;;;5120580;27;20236;-62
2022/07/29 08:08:24;;;;;;;0.30;0.30;;;;;;;;;;5123813;27;20295;-63
2022/07/29 08:11:11;;;;;;;0.30;0.30;;;;;;;;;;5124118;27;20263;-62
2022/07/29 08:14:01;;;;;;;0.60;0.60;;;;;;;;;;5123093;27;20201;-63
2022/07/29 08:16:48;;;;;;;0.50;0.50;;;;;;;;;;5105443;28;20334;-63
2022/07/29 08:19:36;;;;;;;0.40;0.40;;;;;;;;;;5119451;27;20239;-63
2022/07/29 08:22:23;;;;;;;0.60;0.60;;;;;;;;;;5121016;27;20197;-63
2022/07/29 08:25:10;;;;;;;0.50;0.50;;;;;;;;;;5102469;27;20225;-63
2022/07/29 08:27:57;;;;;;;0.55;0.55;;;;;;;;;;5098417;28;20313;-63
2022/07/29 08:30:45;;;;;;;0.47;0.47;;;;;;;;;;5100992;28;20279;-62
2022/07/29 08:33:33;;;;;;;0.43;0.43;;;;;;;;;;5099777;28;20201;-63
2022/07/29 08:36:21;;;;;;;0.50;0.50;;;;;;;;;;5103583;28;20494;-63
2022/07/29 08:39:08;;;;;;;0.63;0.63;;;;;;;;;;5095069;28;20211;-61
2022/07/29 08:41:55;;;;;;;0.68;0.68;;;;;;;;;;5097906;28;20199;-61
2022/07/29 08:44:43;;;;;;;0.75;0.75;;;;;;;;;;5102295;28;20198;-61
2022/07/29 08:47:31;;;;;;;0.60;0.60;;;;;;;;;;5100717;28;20234;-61
2022/07/29 08:50:18;;;;;;;0.50;0.50;;;;;;;;;;5099221;28;20220;-60
2022/07/29 08:53:06;;;;;;;0.57;0.43;;;;;;;;;;5102351;28;20217;-61
2022/07/29 08:55:53;;;;;;;0.50;0.50;;;;;;;;;;5096186;28;20217;-60
2022/07/29 08:58:41;;;;;;;0.60;0.60;;;;;;;;;;5100177;28;20260;-60
2022/07/29 09:01:30;;;;;;;0.77;0.77;;;;;;;;;;5102084;28;20206;-60
2022/07/29 09:04:20;;;;;;;0.50;0.50;;;;;;;;;;5096936;28;21376;-61
2022/07/29 09:07:08;;;;;;;0.40;0.40;;;;;;;;;;5102934;27;20234;-60
2022/07/29 09:09:55;;;;;;;1.00;0.77;;;;;;;;;;5093678;28;20605;-60
2022/07/29 09:12:42;;;;;;;0.50;0.50;;;;;;;;;;5098986;28;20257;-60
2022/07/29 09:15:29;;;;;;;0.40;0.40;;;;;;;;;;5094404;28;20206;-60
2022/07/29 09:18:34;;;;;;;0.50;0.50;;;;;;;;;;5100838;28;20226;-60
2022/07/29 09:24:38;;;;;;;0.70;0.70;;;;;;;;;;5106555;27;20241;-61
2022/07/29 09:27:26;;;;;;;0.60;0.60;;;;;;;;;;5113887;27;20480;-60
2022/07/29 09:30:15;;;;;;;0.50;0.50;;;;;;;;;;5116355;27;20213;-60
2022/07/29 09:33:04;;;;;;;0.60;0.60;;;;;;;;;;5112656;27;20565;-60
2022/07/29 09:36:00;;;;;;;0.70;0.63;;;;;;;;;;5117747;27;20202;-60
2022/07/29 09:38:58;;;;;;;0.60;0.60;;;;;;;;;;5121368;27;20330;-60
2022/07/29 09:41:52;;;;;;;0.50;0.50;;;;;;;;;;5116266;27;20200;-60
2022/07/29 09:44:44;;;;;;;0.70;0.57;;;;;;;;;;5115562;27;20406;-62
2022/07/29 09:47:44;;;;;;;0.50;0.50;;;;;;;;;;5119213;27;20201;-62
2022/07/29 09:50:38;;;;;;;0.57;0.57;;;;;;;;;;5119598;27;20448;-62
2022/07/29 09:53:32;;;;;;;0.50;0.50;;;;;;;;;;5114148;27;20228;-62
2022/07/29 09:56:21;;;;;;;0.57;0.57;;;;;;;;;;5115677;27;20630;-62
2022/07/29 09:59:10;;;;;;;1.17;0.43;;;;;;;;;;5110919;27;20212;-62
2022/07/29 10:01:57;;;;;;;0.60;0.60;;;;;;;;;;5115713;27;20194;-62
2022/07/29 10:04:44;;;;;;;0.40;0.40;;;;;;;;;;5109574;27;20221;-61
2022/07/29 10:07:45;;;;;;;0.80;0.40;;;;;;;;;;5114255;27;20205;-61
2022/07/29 10:10:34;;;;;;;0.60;0.60;;;;;;;;;;5116124;27;20284;-61
2022/07/29 10:13:23;;;;;;;0.77;0.60;;;;;;;;;;5117257;27;20230;-61
2022/07/29 10:16:10;;;;;;;0.60;0.60;;;;;;;;;;5121509;27;20290;-61
2022/07/29 10:18:57;;;;;;;0.55;0.55;;;;;;;;;;5113971;27;20189;-61
2022/07/29 10:21:45;;;;;;;0.55;0.50;;;;;;;;;;5116593;27;20203;-60
2022/07/29 10:24:32;;;;;;;0.65;0.60;;;;;;;;;;5114538;27;20263;-61
2022/07/29 10:27:20;;;;;;;0.60;0.60;;;;;;;;;;5118492;28;20208;-61
2022/07/29 10:30:10;;;;;;;1.35;0.70;;;;;;;;;;5115371;27;20305;-61
2022/07/29 10:33:18;;;;;;;0.70;0.70;;;;;;;;;;5114938;28;20225;-62
2022/07/29 10:36:27;;;;;;;1.05;0.60;;;;;;;;;;5115784;28;20243;-62
2022/07/29 10:39:27;;;;;;;0.57;0.57;;;;;;;;;;5113227;27;20326;-62
2022/07/29 10:42:19;;;;;;;0.60;0.60;;;;;;;;;;5114531;27;20205;-61
2022/07/29 10:45:08;;;;;;;0.98;0.80;;;;;;;;;;5118922;27;20236;-62
2022/07/29 10:48:05;;;;;;;0.60;0.60;;;;;;;;;;5114870;27;20213;-61
2022/07/29 10:50:58;;;;;;;0.45;0.45;;;;;;;;;;5116574;27;20276;-62
2022/07/29 10:53:50;;;;;;;0.60;0.60;;;;;;;;;;5114476;27;20226;-61
2022/07/29 10:56:37;;;;;;;0.70;0.70;;;;;;;;;;5119797;28;20251;-61
2022/07/29 10:59:25;;;;;;;0.80;0.80;;;;;;;;;;5114933;28;20209;-62
2022/07/29 11:02:48;;;;;;;0.60;0.60;;;;;;;;;;5122146;27;20662;-62
2022/07/29 11:05:56;;;;;;;0.65;0.65;;;;;;;;;;5116388;27;20306;-62
2022/07/29 11:08:43;;;;;;;0.75;0.75;;;;;;;;;;5110603;27;20625;-62
2022/07/29 11:11:34;;;;;;;0.70;0.70;;;;;;;;;;5119184;27;20300;-61
2022/07/29 11:14:57;;;;;;;0.60;0.60;;;;;;;;;;5117999;27;20680;-62
2022/07/29 11:18:11;;;;;;;0.82;0.82;;;;;;;;;;5115558;27;20658;-61
2022/07/29 11:20:59;;;;;;;0.50;0.50;;;;;;;;;;5123174;27;20550;-62
2022/07/29 11:23:47;;;;;;;0.80;0.80;;;;;;;;;;5126623;27;20245;-61
2022/07/29 11:26:34;;;;;;;0.80;0.80;;;;;;;;;;5124988;27;20872;-61
2022/07/29 11:29:22;;;;;;;0.65;0.65;;;;;;;;;;5121066;27;20206;-61
2022/07/29 11:32:14;;;;;;;0.70;0.70;;;;;;;;;;5119341;27;20225;-62
2022/07/29 11:35:17;;;;;;;0.60;0.60;;;;;;;;;;5118861;27;20217;-62
2022/07/29 11:38:26;;;;;;;0.70;0.70;;;;;;;;;;5119986;27;20735;-61
2022/07/29 11:41:28;;;;;;;1.48;0.63;;;;;;;;;;5120421;27;20741;-62
2022/07/29 11:44:16;;;;;;;0.57;0.57;;;;;;;;;;5120692;27;20480;-62
2022/07/29 11:47:03;;;;;;;0.52;0.52;;;;;;;;;;5118290;27;20209;-61
2022/07/29 11:49:51;;;;;;;0.52;0.50;;;;;;;;;;5118129;27;20206;-62
2022/07/29 11:52:45;;;;;;;0.70;0.70;;;;;;;;;;5125172;27;20645;-62
2022/07/29 11:55:35;;;;;;;0.80;0.80;;;;;;;;;;5124568;27;20215;-61
2022/07/29 11:58:23;;;;;;;0.60;0.60;;;;;;;;;;5113980;27;20340;-62
2022/07/29 12:01:14;;;;;;;0.60;0.60;;;;;;;;;;5121614;27;20285;-62
2022/07/29 12:04:05;;;;;;;0.60;0.60;;;;;;;;;;5120467;27;20212;-61
2022/07/29 12:06:52;;;;;;;0.70;0.70;;;;;;;;;;5123825;27;20621;-62
2022/07/29 12:09:40;;;;;;;0.70;0.70;;;;;;;;;;5112478;27;20679;-62
2022/07/29 12:12:28;;;;;;;0.60;0.60;;;;;;;;;;5123123;27;20332;-62
2022/07/29 12:15:20;;;;;;;0.45;0.45;;;;;;;;;;5116937;27;20764;-62
2022/07/29 12:18:15;;;;;;;0.77;0.77;;;;;;;;;;5121437;27;20632;-62
2022/07/29 12:21:04;;;;;;;0.77;0.77;;;;;;;;;;5121183;27;20212;-62
2022/07/29 12:23:55;;;;;;;0.60;0.60;;;;;;;;;;5122662;27;20340;-62
2022/07/29 12:26:52;;;;;;;0.57;0.57;;;;;;;;;;5115557;27;20201;-62
2022/07/29 12:29:39;;;;;;;0.52;0.52;;;;;;;;;;5117759;27;20201;-62
2022/07/29 12:32:33;;;;;;;0.52;0.52;;;;;;;;;;5115587;27;20213;-61
2022/07/29 12:35:21;;;;;;;0.70;0.70;;;;;;;;;;5118499;27;20296;-61
2022/07/29 12:38:11;;;;;;;0.60;0.60;;;;;;;;;;5118374;27;20661;-61
2022/07/29 12:40:58;;;;;;;0.65;0.65;;;;;;;;;;5118998;27;20206;-62
2022/07/29 12:43:54;;;;;;;0.50;0.50;;;;;;;;;;5119834;27;20198;-62
2022/07/29 12:46:41;;;;;;;0.52;0.52;;;;;;;;;;5114902;27;20229;-61
2022/07/29 12:49:29;;;;;;;0.75;0.75;;;;;;;;;;5119116;27;20252;-62
2022/07/29 12:52:27;;;;;;;0.57;0.57;;;;;;;;;;5114396;27;20689;-61
2022/07/29 12:55:14;;;;;;;0.60;0.60;;;;;;;;;;5115594;27;20571;-62
2022/07/29 12:58:02;;;;;;;0.63;0.63;;;;;;;;;;5121038;27;20602;-62
2022/07/29 13:01:00;;;;;;;0.60;0.60;;;;;;;;;;5121450;27;20206;-62
2022/07/29 13:03:51;;;;;;;0.52;0.52;;;;;;;;;;5121264;27;20193;-62
2022/07/29 13:06:40;;;;;;;0.40;0.40;;;;;;;;;;5114488;27;20225;-62
2022/07/29 13:09:38;;;;;;;0.80;0.80;;;;;;;;;;5112808;27;20217;-62
2022/07/29 13:12:25;;;;;;;0.60;0.60;;;;;;;;;;5116622;27;20217;-62
2022/07/29 13:15:16;;;;;;;0.60;0.60;;;;;;;;;;5118622;27;20248;-62
2022/07/29 13:18:05;;;;;;;0.50;0.50;;;;;;;;;;5117370;27;20209;-62
2022/07/29 13:20:52;;;;;;;0.50;0.50;;;;;;;;;;5115186;27;20732;-61
2022/07/29 13:23:39;;;;;;;0.70;0.70;;;;;;;;;;5119378;27;20236;-63
2022/07/29 13:26:26;;;;;;;0.70;0.70;;;;;;;;;;5117817;27;20240;-62
2022/07/29 13:29:13;;;;;;;0.65;0.65;;;;;;;;;;5118102;27;20406;-62
2022/07/29 13:32:00;;;;;;;0.60;0.60;;;;;;;;;;5110184;27;20216;-62
2022/07/29 13:34:48;;;;;;;0.70;0.70;;;;;;;;;;5112999;27;20280;-62
2022/07/29 13:37:38;;;;;;;0.40;0.40;;;;;;;;;;5113747;27;20743;-62
2022/07/29 13:40:25;;;;;;;0.50;0.50;;;;;;;;;;5117178;27;20213;-61
2022/07/29 13:43:13;;;;;;;0.60;0.60;;;;;;;;;;5112416;27;20583;-61
2022/07/29 13:46:00;;;;;;;0.75;0.75;;;;;;;;;;5119336;27;20801;-61
2022/07/29 13:48:47;;;;;;;0.73;0.73;;;;;;;;;;5113072;27;20206;-62
2022/07/29 13:51:35;;;;;;;0.43;0.43;;;;;;;;;;5112459;27;20202;-62
2022/07/29 13:54:22;;;;;;;0.68;0.68;;;;;;;;;;5121413;27;20240;-61
2022/07/29 13:57:10;;;;;;;0.50;0.50;;;;;;;;;;5116265;27;20252;-62
2022/07/29 13:59:57;;;;;;;0.60;0.60;;;;;;;;;;5116717;27;20555;-62
2022/07/29 14:02:44;;;;;;;0.60;0.60;;;;;;;;;;5117086;27;20217;-61
2022/07/29 14:05:31;;;;;;;0.60;0.60;;;;;;;;;;5116314;27;20258;-62
2022/07/29 14:08:20;;;;;;;0.60;0.60;;;;;;;;;;5118829;27;20218;-62
2022/07/29 14:11:07;;;;;;;0.60;0.60;;;;;;;;;;5117444;27;20216;-62
2022/07/29 14:13:54;;;;;;;0.75;0.75;;;;;;;;;;5117674;27;20236;-61
2022/07/29 14:16:41;;;;;;;0.63;0.50;;;;;;;;;;5115688;27;20201;-62
2022/07/29 14:19:28;;;;;;;0.85;0.85;;;;;;;;;;5113822;27;20216;-62
2022/07/29 14:22:15;;;;;;;0.65;0.65;;;;;;;;;;5118159;27;20200;-62
2022/07/29 14:25:03;;;;;;;0.63;0.63;;;;;;;;;;5104102;28;20230;-61
2022/07/29 14:27:52;;;;;;;0.75;0.75;;;;;;;;;;5092591;28;20216;-62
2022/07/29 14:30:39;;;;;;;0.57;0.57;;;;;;;;;;5097568;28;20222;-62
2022/07/29 14:33:26;;;;;;;0.55;0.55;;;;;;;;;;5097964;28;20230;-61
2022/07/29 14:36:13;;;;;;;0.52;0.52;;;;;;;;;;5095362;28;20248;-62
2022/07/29 14:39:00;;;;;;;0.60;0.60;;;;;;;;;;5099683;28;20205;-62
2022/07/29 14:41:48;;;;;;;0.70;0.70;;;;;;;;;;5095878;28;20214;-62
2022/07/29 14:44:35;;;;;;;0.80;0.80;;;;;;;;;;5104111;28;20705;-62
2022/07/29 14:47:23;;;;;;;0.50;0.50;;;;;;;;;;5099069;28;20205;-61
2022/07/29 14:50:10;;;;;;;0.98;0.65;;;;;;;;;;5094223;28;20224;-61
2022/07/29 14:52:57;;;;;;;0.82;0.82;;;;;;;;;;5094460;28;20252;-62
2022/07/29 14:55:45;;;;;;;0.80;0.80;;;;;;;;;;5097204;28;20194;-63
2022/07/29 14:58:33;;;;;;;0.70;0.70;;;;;;;;;;5096060;28;20206;-61
2022/07/29 15:01:20;;;;;;;0.63;0.63;;;;;;;;;;5091370;28;20280;-61
2022/07/29 15:04:07;;;;;;;0.70;0.70;;;;;;;;;;5098406;28;20213;-62
2022/07/29 15:06:54;;;;;;;0.60;0.60;;;;;;;;;;5095964;28;20231;-62
2022/07/29 15:09:41;;;;;;;0.60;0.60;;;;;;;;;;5098736;28;20218;-62
2022/07/29 15:12:28;;;;;;;0.50;0.50;;;;;;;;;;5095147;28;20213;-62
2022/07/29 15:15:16;;;;;;;0.60;0.60;;;;;;;;;;5093538;28;20210;-61
2022/07/29 15:18:03;;;;;;;0.63;0.63;;;;;;;;;;5100467;28;20680;-62
2022/07/29 15:20:50;;;;;;;0.70;0.70;;;;;;;;;;5099170;28;20225;-62
2022/07/29 15:23:38;;;;;;;0.50;0.50;;;;;;;;;;5093570;28;20664;-61
2022/07/29 15:26:25;;;;;;;0.60;0.60;;;;;;;;;;5092429;28;20198;-62
2022/07/29 15:29:13;;;;;;;0.60;0.60;;;;;;;;;;5095253;28;20297;-62
2022/07/29 15:32:01;;;;;;;0.57;0.57;;;;;;;;;;5097979;28;20279;-62
2022/07/29 15:34:48;;;;;;;0.50;0.50;;;;;;;;;;5098732;28;20636;-62
2022/07/29 15:37:35;;;;;;;0.50;0.50;;;;;;;;;;5096070;28;20205;-63
2022/07/29 15:40:22;;;;;;;0.63;0.63;;;;;;;;;;5099498;28;20216;-61
2022/07/29 15:43:09;;;;;;;0.60;0.60;;;;;;;;;;5098442;28;20208;-61
2022/07/29 15:49:02;;;;;;;0.60;0.60;;;;;;;;;;5096363;28;20198;-62
2022/07/29 15:51:49;;;;;;;0.52;0.52;;;;;;;;;;5097896;28;20661;-62
2022/07/29 15:54:37;;;;;;;0.57;0.57;;;;;;;;;;5100783;28;20240;-62
2022/07/29 15:57:24;;;;;;;0.70;0.70;;;;;;;;;;5105992;28;20225;-62
2022/07/29 16:00:12;;;;;;;0.73;0.60;;;;;;;;;;5096164;28;20199;-62
2022/07/29 16:02:59;;;;;;;0.60;0.60;;;;;;;;;;5096401;28;20205;-62
2022/07/29 16:05:47;;;;;;;0.55;0.55;;;;;;;;;;5095709;28;20238;-64
2022/07/29 16:08:34;;;;;;;0.50;0.50;;;;;;;;;;5097020;28;20202;-62
2022/07/29 16:11:22;;;;;;;0.65;0.65;;;;;;;;;;5106552;28;20211;-62
2022/07/29 16:14:09;;;;;;;0.80;0.80;;;;;;;;;;5093099;28;20707;-62
2022/07/29 16:16:56;;;;;;;0.40;0.40;;;;;;;;;;5096645;28;20717;-62
2022/07/29 16:19:44;;;;;;;0.57;0.57;;;;;;;;;;5098273;28;20202;-62
2022/07/29 16:22:32;;;;;;;0.60;0.60;;;;;;;;;;5097759;27;20214;-62
2022/07/29 16:25:19;;;;;;;0.80;0.80;;;;;;;;;;5100319;28;20237;-62
2022/07/29 16:28:07;;;;;;;0.70;0.70;;;;;;;;;;5096277;28;20259;-62
2022/07/29 16:30:54;;;;;;;0.50;0.50;;;;;;;;;;5099035;28;20681;-62
2022/07/29 16:33:41;;;;;;;0.70;0.70;;;;;;;;;;5098571;28;20321;-63
2022/07/29 16:36:28;;;;;;;0.70;0.70;;;;;;;;;;5092944;28;20271;-63
2022/07/29 16:39:16;;;;;;;0.70;0.70;;;;;;;;;;5095934;28;20215;-62
2022/07/29 16:42:04;;;;;;;0.60;0.60;;;;;;;;;;5100739;28;20674;-62
2022/07/29 16:44:51;;;;;;;0.60;0.60;;;;;;;;;;5095247;28;20206;-62
2022/07/29 16:47:38;;;;;;;2.53;0.82;;;;;;;;;;5097645;28;20286;-62
2022/07/29 16:50:26;;;;;;;0.60;0.60;;;;;;;;;;5097270;28;20219;-62
2022/07/29 16:53:13;;;;;;;0.55;0.55;;;;;;;;;;5097603;28;20568;-62
2022/07/29 16:56:02;;;;;;;0.70;0.70;;;;;;;;;;5097605;28;20203;-62
2022/07/29 16:58:49;;;;;;;0.80;0.80;;;;;;;;;;5097577;28;20614;-62
2022/07/29 17:01:36;;;;;;;0.70;0.70;;;;;;;;;;5098468;28;20692;-62
2022/07/29 17:04:23;;;;;;;0.75;0.75;;;;;;;;;;5095600;28;20289;-62